createdAt,value
2018-12-24T00:02:51.891Z,22.60
2018-12-24T00:05:32.459Z,22.70
2018-12-24T00:08:13.186Z,23.77
2018-12-24T00:10:53.625Z,22.50
2018-12-24T00:13:34.167Z,22.70
2018-12-24T00:16:14.736Z,22.80
2018-12-24T00:18:55.861Z,22.87
2018-12-24T00:21:37.118Z,22.67
2018-12-24T00:24:17.752Z,22.70
2018-12-24T00:26:58.978Z,22.40
2018-12-24T00:29:39.562Z,22.17
2018-12-24T00:32:20.297Z,22.63
2018-12-24T00:35:01.716Z,22.40
2018-12-24T00:37:42.192Z,22.50
2018-12-24T00:40:23.341Z,22.70
2018-12-24T00:43:03.869Z,22.80
2018-12-24T00:45:44.521Z,23.37
2018-12-24T00:48:25.728Z,24.70
2018-12-24T00:51:06.146Z,22.90
2018-12-24T00:53:46.785Z,22.73
2018-12-24T00:56:27.305Z,22.50
2018-12-24T00:59:08.756Z,22.87
2018-12-24T01:01:50.089Z,22.60
2018-12-24T01:04:31.369Z,22.30
2018-12-24T01:07:12.615Z,22.80
2018-12-24T01:09:53.752Z,22.77
2018-12-24T01:12:35.004Z,22.40
2018-12-24T01:15:16.217Z,24.00
2018-12-24T01:17:57.225Z,23.03
2018-12-24T01:20:37.703Z,22.30
2018-12-24T01:23:18.522Z,22.60
2018-12-24T01:25:59.849Z,22.20
2018-12-24T01:28:40.762Z,22.63
2018-12-24T01:31:21.278Z,23.50
2018-12-24T01:34:02.417Z,22.70
2018-12-24T01:36:43.807Z,22.77
2018-12-24T01:39:24.376Z,22.70
2018-12-24T01:42:05.273Z,23.20
2018-12-24T01:44:46.568Z,22.67
2018-12-24T01:47:27.637Z,23.80
2018-12-24T01:50:08.449Z,22.60
2018-12-24T01:52:49.069Z,23.23
2018-12-24T01:55:29.577Z,23.47
2018-12-24T01:58:10.416Z,22.67
2018-12-24T02:00:51.901Z,22.70
2018-12-24T02:03:33.056Z,22.60
2018-12-24T02:06:13.521Z,22.60
2018-12-24T02:08:54.564Z,23.23
2018-12-24T02:11:35.857Z,24.23
2018-12-24T02:14:16.484Z,25.37
2018-12-24T02:16:57.234Z,23.00
2018-12-24T02:19:38.081Z,23.60
2018-12-24T02:22:18.881Z,24.60
2018-12-24T02:24:59.662Z,24.30
2018-12-24T02:27:40.774Z,25.20
2018-12-24T02:30:21.285Z,22.77
2018-12-24T02:33:01.940Z,22.73
2018-12-24T02:35:43.247Z,22.17
2018-12-24T02:38:23.901Z,22.60
2018-12-24T02:41:04.672Z,23.43
2018-12-24T02:43:45.485Z,24.70
2018-12-24T02:46:26.433Z,23.43
2018-12-24T02:49:07.015Z,22.83
2018-12-24T02:51:47.491Z,23.17
2018-12-24T02:54:28.573Z,22.50
2018-12-24T02:57:07.908Z,22.87
2018-12-24T02:59:56.088Z,22.83
2018-12-24T03:02:44.318Z,22.70
2018-12-24T03:14:15.329Z,22.70
2018-12-24T03:17:03.537Z,22.70
2018-12-24T03:19:51.724Z,22.60
2018-12-24T03:28:41.380Z,24.27
2018-12-24T03:31:29.509Z,22.80
2018-12-24T03:34:17.705Z,23.77
2018-12-24T03:37:05.833Z,23.80
2018-12-24T03:39:54.002Z,25.90
2018-12-24T03:42:42.123Z,23.80
2018-12-24T03:45:30.333Z,25.50
2018-12-24T03:48:18.460Z,23.20
2018-12-24T03:53:53.033Z,23.00
2018-12-24T03:56:33.864Z,24.67
2018-12-24T03:59:14.740Z,23.07
2018-12-24T04:01:43.950Z,23.00
2018-12-24T04:04:12.898Z,23.50
2018-12-24T04:06:41.836Z,22.77
2018-12-24T04:09:10.790Z,23.07
2018-12-24T04:11:39.811Z,23.03
2018-12-24T04:14:08.922Z,22.50
2018-12-24T04:16:37.879Z,22.70
2018-12-24T04:19:06.748Z,22.80
2018-12-24T04:21:35.786Z,24.20
2018-12-24T04:24:04.869Z,22.60
2018-12-24T04:26:33.789Z,22.80
2018-12-24T04:29:02.727Z,22.60
2018-12-24T04:31:31.639Z,23.20
2018-12-24T04:34:00.656Z,22.27
2018-12-24T04:36:29.664Z,22.90
2018-12-24T04:38:59.905Z,23.10
2018-12-24T04:41:28.902Z,24.20
2018-12-24T04:43:59.279Z,22.83
2018-12-24T04:46:28.337Z,24.43
2018-12-24T04:48:57.365Z,24.37
2018-12-24T04:51:26.316Z,23.50
2018-12-24T04:53:55.284Z,23.87
2018-12-24T04:56:24.196Z,23.70
2018-12-24T04:58:53.169Z,23.70
2018-12-24T05:01:22.209Z,24.00
2018-12-24T05:03:51.166Z,23.87
2018-12-24T05:06:20.077Z,23.60
2018-12-24T05:08:49.020Z,24.20
2018-12-24T05:11:18.020Z,23.80
2018-12-24T05:13:47.003Z,24.10
2018-12-24T05:16:15.984Z,24.17
2018-12-24T05:18:44.869Z,24.00
2018-12-24T05:21:14.019Z,23.57
2018-12-24T05:23:42.896Z,23.27
2018-12-24T05:26:11.909Z,23.37
2018-12-24T05:28:40.998Z,23.87
2018-12-24T05:31:10.004Z,23.20
2018-12-24T05:33:38.970Z,23.07
2018-12-24T05:36:07.933Z,23.27
2018-12-24T05:38:36.944Z,24.37
2018-12-24T05:41:05.964Z,23.27
2018-12-24T05:43:34.921Z,23.90
2018-12-24T05:46:03.944Z,22.80
2018-12-24T05:48:32.994Z,22.80
2018-12-24T05:51:02.157Z,23.10
2018-12-24T05:53:31.460Z,22.87
2018-12-24T05:56:00.537Z,22.93
2018-12-24T05:58:29.497Z,23.40
2018-12-24T06:00:58.667Z,23.07
2018-12-24T06:03:27.741Z,22.80
2018-12-24T06:05:56.680Z,22.93
2018-12-24T06:08:25.593Z,23.37
2018-12-24T06:10:54.484Z,23.47
2018-12-24T06:13:23.460Z,23.43
2018-12-24T06:15:52.460Z,23.77
2018-12-24T06:18:21.397Z,24.10
2018-12-24T06:20:50.366Z,24.40
2018-12-24T06:23:19.731Z,23.17
2018-12-24T06:25:48.770Z,23.50
2018-12-24T06:28:17.752Z,23.93
2018-12-24T06:30:46.826Z,23.47
2018-12-24T06:33:15.840Z,23.40
2018-12-24T06:35:44.788Z,23.13
2018-12-24T06:38:13.837Z,23.33
2018-12-24T06:40:42.857Z,24.17
2018-12-24T06:43:11.823Z,23.53
2018-12-24T06:45:40.802Z,24.17
2018-12-24T06:48:09.838Z,23.07
2018-12-24T06:50:38.814Z,23.33
2018-12-24T06:53:08.022Z,24.10
2018-12-24T06:55:36.991Z,22.90
2018-12-24T06:58:06.070Z,23.40
2018-12-24T07:00:35.016Z,23.73
2018-12-24T07:03:04.077Z,23.70
2018-12-24T07:05:33.055Z,23.80
2018-12-24T07:08:02.065Z,23.97
2018-12-24T07:10:31.033Z,24.00
2018-12-24T07:13:00.122Z,23.93
2018-12-24T07:15:29.165Z,28.10
2018-12-24T07:17:58.162Z,22.80
2018-12-24T07:20:27.145Z,24.67
2018-12-24T07:22:56.209Z,24.97
2018-12-24T07:25:25.288Z,25.83
2018-12-24T07:27:54.354Z,24.57
2018-12-24T07:30:23.333Z,24.30
2018-12-24T07:32:52.401Z,25.50
2018-12-24T07:35:40.541Z,25.17
2018-12-24T07:38:09.548Z,24.90
2018-12-24T07:40:38.507Z,24.30
2018-12-24T07:43:07.657Z,24.53
2018-12-24T07:45:36.725Z,24.97
2018-12-24T07:48:05.853Z,24.00
2018-12-24T07:50:34.922Z,24.87
2018-12-24T07:53:03.952Z,23.57
2018-12-24T07:55:32.914Z,24.00
2018-12-24T07:58:01.866Z,24.80
2018-12-24T08:00:30.957Z,23.30
2018-12-24T08:03:00.033Z,23.87
2018-12-24T08:05:28.997Z,24.27
2018-12-24T08:07:58.248Z,23.67
2018-12-24T08:10:27.187Z,23.47
2018-12-24T08:12:56.147Z,23.13
2018-12-24T08:15:25.234Z,22.97
2018-12-24T08:17:54.217Z,22.80
2018-12-24T08:20:23.288Z,23.30
2018-12-24T08:22:52.185Z,22.70
2018-12-24T08:25:21.343Z,23.50
2018-12-24T08:27:50.372Z,23.40
2018-12-24T08:30:19.408Z,25.63
2018-12-24T08:32:48.440Z,23.40
2018-12-24T08:35:17.561Z,23.40
2018-12-24T08:37:46.715Z,24.53
2018-12-24T08:40:15.712Z,23.57
2018-12-24T08:42:44.861Z,23.83
2018-12-24T08:45:13.888Z,23.77
2018-12-24T08:47:42.766Z,23.70
2018-12-24T08:50:11.802Z,23.57
2018-12-24T08:52:40.680Z,23.73
2018-12-24T08:55:09.736Z,23.47
2018-12-24T08:57:38.797Z,24.80
2018-12-24T09:00:08.053Z,23.67
2018-12-24T09:02:36.961Z,24.73
2018-12-24T09:05:06.148Z,24.87
2018-12-24T09:07:35.285Z,25.43
2018-12-24T09:10:04.179Z,26.77
2018-12-24T09:12:33.151Z,25.77
2018-12-24T09:15:02.112Z,26.03
2018-12-24T09:17:31.128Z,25.00
2018-12-24T09:20:00.165Z,25.80
2018-12-24T09:22:29.482Z,26.10
2018-12-24T09:24:58.580Z,26.17
2018-12-24T09:27:27.569Z,26.70
2018-12-24T09:29:56.664Z,27.30
2018-12-24T09:32:25.553Z,25.90
2018-12-24T09:34:54.714Z,26.50
2018-12-24T09:37:23.755Z,25.77
2018-12-24T09:39:52.749Z,25.90
2018-12-24T09:42:21.621Z,26.50
2018-12-24T09:44:58.718Z,27.20
2018-12-24T09:47:21.354Z,28.07
2018-12-24T09:49:50.343Z,27.37
2018-12-24T09:52:19.237Z,26.47
2018-12-24T09:54:48.338Z,28.77
2018-12-24T09:57:17.207Z,27.40
2018-12-24T09:59:46.130Z,26.50
2018-12-24T10:02:16.383Z,26.40
2018-12-24T10:04:53.650Z,25.87
2018-12-24T10:07:40.483Z,27.20
2018-12-24T10:10:12.593Z,26.43
2018-12-24T10:12:41.557Z,26.97
2018-12-24T10:15:10.540Z,26.17
2018-12-24T10:17:39.488Z,27.40
2018-12-24T10:20:08.540Z,24.77
2018-12-24T10:22:37.595Z,29.33
2018-12-24T10:25:06.945Z,24.63
2018-12-24T10:27:36.000Z,25.53
2018-12-24T10:30:07.281Z,25.67
2018-12-24T10:32:36.309Z,24.57
2018-12-24T10:35:05.430Z,23.90
2018-12-24T10:37:34.309Z,23.63
2018-12-24T10:40:12.384Z,24.90
2018-12-24T10:42:41.549Z,24.07
2018-12-24T10:45:16.389Z,23.47
2018-12-24T10:47:41.352Z,24.70
2018-12-24T10:50:10.374Z,23.63
2018-12-24T10:52:39.320Z,24.30
2018-12-24T10:55:08.289Z,25.20
2018-12-24T10:57:37.455Z,25.90
2018-12-24T11:00:08.516Z,26.23
2018-12-24T11:02:37.560Z,28.73
2018-12-24T11:05:06.640Z,30.97
2018-12-24T11:07:35.631Z,27.90
2018-12-24T11:10:09.605Z,26.73
2018-12-24T11:12:38.613Z,25.63
2018-12-24T11:15:09.475Z,26.97
2018-12-24T11:17:38.473Z,27.17
2018-12-24T11:20:08.061Z,28.20
2018-12-24T11:22:37.148Z,27.93
2018-12-24T11:25:06.131Z,29.90
2018-12-24T11:27:35.113Z,28.83
2018-12-24T11:30:04.160Z,28.60
2018-12-24T11:32:33.113Z,27.47
2018-12-24T11:35:02.193Z,28.90
2018-12-24T11:37:31.209Z,27.00
2018-12-24T11:40:00.140Z,28.80
2018-12-24T11:42:29.494Z,26.73
2018-12-24T11:44:58.460Z,24.77
2018-12-24T11:47:27.585Z,25.70
2018-12-24T11:49:56.626Z,27.20
2018-12-24T11:52:25.594Z,28.40
2018-12-24T11:54:54.555Z,27.97
2018-12-24T11:57:23.597Z,26.70
2018-12-24T11:59:52.577Z,29.27
2018-12-24T12:02:21.607Z,28.10
2018-12-24T12:04:50.629Z,29.20
2018-12-24T12:07:19.710Z,27.40
2018-12-24T12:09:48.746Z,27.90
2018-12-24T12:12:18.901Z,28.80
2018-12-24T12:14:47.847Z,31.13
2018-12-24T12:17:16.868Z,32.40
2018-12-24T12:19:45.856Z,30.17
2018-12-24T12:22:14.925Z,27.17
2018-12-24T12:24:43.873Z,26.37
2018-12-24T12:27:12.819Z,25.43
2018-12-24T12:29:41.936Z,25.80
2018-12-24T12:32:10.900Z,25.83
2018-12-24T12:34:39.821Z,29.53
2018-12-24T12:37:08.852Z,26.13
2018-12-24T12:39:38.132Z,25.67
2018-12-24T12:42:07.150Z,24.17
2018-12-24T12:44:36.125Z,26.23
2018-12-24T12:47:05.064Z,26.40
2018-12-24T12:49:34.137Z,29.50
2018-12-24T12:52:03.191Z,25.77
2018-12-24T12:54:32.245Z,26.73
2018-12-24T12:57:01.465Z,25.73
2018-12-24T12:59:30.464Z,26.93
2018-12-24T13:01:59.502Z,26.17
2018-12-24T13:04:28.484Z,28.67
2018-12-24T13:06:57.452Z,27.97
2018-12-24T13:09:26.465Z,27.60
2018-12-24T13:11:55.605Z,27.87
2018-12-24T13:14:24.591Z,27.70
2018-12-24T13:16:53.596Z,27.20
2018-12-24T13:19:23.668Z,30.73
2018-12-24T13:21:52.594Z,29.97
2018-12-24T13:24:21.481Z,30.20
2018-12-24T13:26:50.433Z,29.57
2018-12-24T13:29:19.695Z,30.00
2018-12-24T13:31:48.820Z,28.07
2018-12-24T13:34:17.899Z,28.83
2018-12-24T13:36:47.010Z,29.70
2018-12-24T13:39:16.005Z,27.50
2018-12-24T13:41:45.048Z,24.37
2018-12-24T13:44:14.153Z,24.40
2018-12-24T13:46:43.124Z,24.23
2018-12-24T13:49:13.177Z,24.90
2018-12-24T13:51:42.141Z,25.23
2018-12-24T13:54:11.213Z,24.90
2018-12-24T13:56:41.972Z,26.10
2018-12-24T13:59:11.072Z,24.67
2018-12-24T14:01:40.105Z,24.83
2018-12-24T14:04:09.033Z,25.60
2018-12-24T14:06:38.080Z,25.20
2018-12-24T14:09:08.787Z,25.17
2018-12-24T14:11:38.096Z,26.33
2018-12-24T14:14:07.119Z,25.27
2018-12-24T14:16:36.073Z,25.67
2018-12-24T14:19:05.065Z,26.57
2018-12-24T14:21:34.141Z,25.07
2018-12-24T14:24:03.109Z,25.27
2018-12-24T14:26:32.104Z,25.27
2018-12-24T14:29:01.262Z,26.50
2018-12-24T14:31:30.149Z,24.57
2018-12-24T14:33:59.224Z,24.10
2018-12-24T14:36:28.268Z,25.30
2018-12-24T14:38:57.285Z,24.57
2018-12-24T14:41:26.236Z,25.07
2018-12-24T14:43:55.220Z,25.57
2018-12-24T14:46:25.691Z,25.53
2018-12-24T14:48:55.063Z,25.50
2018-12-24T14:51:24.045Z,26.87
2018-12-24T14:53:53.061Z,26.10
2018-12-24T14:56:22.061Z,25.17
2018-12-24T14:58:50.938Z,25.73
2018-12-24T15:01:19.946Z,25.57
2018-12-24T15:03:48.937Z,26.30
2018-12-24T15:06:18.117Z,25.33
2018-12-24T15:08:47.222Z,26.67
2018-12-24T15:11:16.280Z,26.30
2018-12-24T15:13:45.333Z,26.50
2018-12-24T15:16:14.450Z,27.87
2018-12-24T15:18:43.496Z,27.10
2018-12-24T15:21:12.741Z,28.20
2018-12-24T15:23:41.736Z,28.40
2018-12-24T15:26:10.764Z,29.20
2018-12-24T15:28:39.847Z,29.47
2018-12-24T15:31:08.805Z,31.47
2018-12-24T15:33:37.910Z,30.33
2018-12-24T15:36:06.881Z,31.37
2018-12-24T15:38:35.793Z,28.20
2018-12-24T15:41:04.736Z,26.87
2018-12-24T15:43:33.965Z,27.40
2018-12-24T15:46:02.891Z,28.03
2018-12-24T15:48:31.940Z,28.07
2018-12-24T15:51:01.028Z,27.10
2018-12-24T15:53:30.241Z,27.77
2018-12-24T15:55:59.280Z,28.03
2018-12-24T15:58:28.196Z,30.30
2018-12-24T16:00:57.237Z,28.00
2018-12-24T16:03:26.472Z,27.47
2018-12-24T16:05:55.612Z,28.50
2018-12-24T16:08:24.652Z,30.20
2018-12-24T16:10:53.633Z,27.30
2018-12-24T16:13:22.644Z,27.37
2018-12-24T16:15:51.653Z,28.13
2018-12-24T16:18:20.797Z,29.00
2018-12-24T16:20:49.852Z,26.60
2018-12-24T16:23:20.012Z,27.73
2018-12-24T16:25:49.086Z,25.70
2018-12-24T16:28:18.032Z,30.00
2018-12-24T16:30:46.881Z,25.50
2018-12-24T16:33:15.924Z,27.30
2018-12-24T16:35:45.047Z,26.60
2018-12-24T16:38:14.049Z,27.17
2018-12-24T16:40:42.944Z,28.40
2018-12-24T16:43:12.032Z,29.17
2018-12-24T16:45:41.050Z,29.47
2018-12-24T16:48:10.101Z,28.13
2018-12-24T16:50:39.135Z,30.07
2018-12-24T16:53:08.101Z,29.60
2018-12-24T16:55:37.089Z,31.20
2018-12-24T16:58:06.093Z,27.90
2018-12-24T17:00:35.285Z,30.03
2018-12-24T17:03:04.364Z,29.20
2018-12-24T17:05:33.199Z,30.07
2018-12-24T17:08:02.168Z,28.90
2018-12-24T17:10:31.409Z,28.47
2018-12-24T17:13:00.477Z,31.60
2018-12-24T17:15:30.744Z,29.80
2018-12-24T17:17:59.745Z,29.50
2018-12-24T17:20:28.708Z,29.87
2018-12-24T17:22:57.787Z,29.57
2018-12-24T17:25:26.725Z,28.77
2018-12-24T17:27:55.815Z,30.60
2018-12-24T17:30:24.771Z,31.03
2018-12-24T17:32:53.785Z,32.17
2018-12-24T17:35:22.753Z,29.93
2018-12-24T17:37:51.797Z,32.53
2018-12-24T17:40:20.753Z,32.00
2018-12-24T17:42:49.711Z,31.70
2018-12-24T17:45:18.671Z,34.57
2018-12-24T17:47:47.767Z,33.33
2018-12-24T17:50:16.780Z,32.50
2018-12-24T17:52:45.738Z,31.60
2018-12-24T17:55:14.668Z,32.70
2018-12-24T17:57:43.726Z,30.90
2018-12-24T18:00:12.809Z,32.00
2018-12-24T18:02:42.056Z,31.87
2018-12-24T18:05:11.087Z,32.70
2018-12-24T18:07:40.132Z,33.90
2018-12-24T18:10:09.206Z,32.80
2018-12-24T18:12:38.272Z,31.80
2018-12-24T18:15:07.285Z,32.97
2018-12-24T18:17:36.255Z,31.67
2018-12-24T18:20:05.497Z,32.43
2018-12-24T18:22:34.565Z,32.90
2018-12-24T18:25:03.593Z,31.93
2018-12-24T18:27:32.641Z,33.50
2018-12-24T18:30:01.641Z,34.70
2018-12-24T18:32:30.703Z,33.00
2018-12-24T18:34:59.722Z,36.17
2018-12-24T18:37:28.799Z,35.17
2018-12-24T18:39:57.818Z,34.30
2018-12-24T18:42:27.013Z,34.53
2018-12-24T18:44:55.988Z,36.63
2018-12-24T18:47:32.992Z,34.00
2018-12-24T18:49:56.072Z,36.70
2018-12-24T18:52:24.976Z,33.23
2018-12-24T18:54:54.037Z,33.30
2018-12-24T18:57:23.819Z,32.90
2018-12-24T18:59:52.652Z,36.33
2018-12-24T19:02:21.671Z,32.00
2018-12-24T19:04:53.554Z,30.77
2018-12-24T19:07:22.593Z,33.60
2018-12-24T19:09:51.704Z,34.93
2018-12-24T19:12:20.671Z,35.70
2018-12-24T19:14:49.739Z,36.33
2018-12-24T19:17:19.142Z,33.50
2018-12-24T19:19:48.094Z,32.20
2018-12-24T19:22:17.342Z,33.70
2018-12-24T19:24:46.376Z,32.87
2018-12-24T19:27:15.428Z,33.27
2018-12-24T19:29:44.453Z,31.57
2018-12-24T19:32:13.510Z,32.40
2018-12-24T19:34:42.568Z,34.73
2018-12-24T19:37:11.542Z,34.97
2018-12-24T19:39:40.786Z,33.17
2018-12-24T19:42:09.878Z,32.77
2018-12-24T19:44:38.788Z,31.27
2018-12-24T19:47:27.033Z,36.60
2018-12-24T19:50:15.148Z,38.83
2018-12-24T19:55:57.717Z,35.97
2018-12-24T19:58:45.842Z,34.40
2018-12-24T20:04:28.026Z,33.50
2018-12-24T20:07:16.179Z,32.03
2018-12-24T20:10:04.492Z,32.00
2018-12-24T20:12:52.634Z,32.67
2018-12-24T20:18:34.572Z,32.43
2018-12-24T20:21:22.695Z,31.23
2018-12-24T20:24:17.717Z,37.63
2018-12-24T20:27:05.938Z,31.33
2018-12-24T20:38:36.855Z,31.97
2018-12-24T20:41:11.218Z,33.13
2018-12-24T20:43:51.944Z,31.10
2018-12-24T20:46:32.478Z,31.30
2018-12-24T20:49:13.441Z,30.73
2018-12-24T20:51:54.285Z,32.47
2018-12-24T20:54:34.737Z,31.63
2018-12-24T20:57:16.009Z,31.03
2018-12-24T20:59:57.013Z,29.90
2018-12-24T21:02:37.758Z,30.50
2018-12-24T21:05:18.192Z,31.57
2018-12-24T21:07:58.906Z,34.37
2018-12-24T21:10:40.214Z,29.17
2018-12-24T21:13:21.134Z,28.80
2018-12-24T21:16:02.330Z,32.00
2018-12-24T21:18:42.781Z,29.77
2018-12-24T21:21:24.010Z,31.10
2018-12-24T21:24:06.561Z,31.23
2018-12-24T21:26:47.368Z,31.83
2018-12-24T21:29:29.978Z,29.40
2018-12-24T21:32:11.158Z,28.98
2018-12-24T21:34:51.826Z,30.00
2018-12-24T21:37:32.401Z,31.33
2018-12-24T21:40:13.612Z,32.90
2018-12-24T21:42:54.975Z,30.70
2018-12-24T21:45:36.125Z,28.00
2018-12-24T21:48:23.811Z,28.40
2018-12-24T21:51:00.145Z,27.17
2018-12-24T21:53:40.777Z,29.57
2018-12-24T21:56:21.238Z,28.23
2018-12-24T21:59:02.001Z,29.30
2018-12-24T22:01:42.854Z,29.83
2018-12-24T22:04:24.077Z,30.27
2018-12-24T22:07:05.442Z,29.07
2018-12-24T22:09:46.239Z,30.17
2018-12-24T22:12:26.632Z,30.43
2018-12-24T22:15:07.470Z,29.97
2018-12-24T22:17:48.453Z,29.60
2018-12-24T22:20:27.811Z,28.97
2018-12-24T22:26:09.601Z,29.45
2018-12-24T22:28:57.829Z,29.00
2018-12-24T22:31:45.969Z,29.40
2018-12-24T22:34:34.142Z,30.62
2018-12-24T22:37:14.802Z,30.23
2018-12-24T22:39:56.112Z,29.87
2018-12-24T22:42:37.405Z,29.27
2018-12-24T22:45:18.442Z,29.57
2018-12-24T22:47:59.822Z,29.77
2018-12-24T22:50:40.769Z,29.67
2018-12-24T22:53:21.273Z,29.80
2018-12-24T22:56:02.447Z,33.23
2018-12-24T22:58:43.225Z,33.20
2018-12-24T23:01:22.425Z,29.27
2018-12-24T23:04:10.622Z,31.10
2018-12-24T23:10:06.126Z,33.20
2018-12-24T23:12:54.257Z,28.47
2018-12-24T23:15:42.504Z,31.17
2018-12-24T23:18:30.670Z,28.47
2018-12-24T23:24:26.242Z,30.12
2018-12-24T23:27:06.789Z,30.92
2018-12-24T23:29:47.364Z,30.23
2018-12-24T23:32:27.905Z,30.33
2018-12-24T23:35:08.543Z,31.00
2018-12-24T23:37:49.096Z,30.23
2018-12-24T23:40:31.966Z,28.55
2018-12-24T23:43:13.065Z,29.35
2018-12-24T23:45:54.516Z,31.50
2018-12-24T23:48:35.750Z,32.30
2018-12-24T23:51:16.949Z,29.17
2018-12-24T23:53:57.506Z,31.73
2018-12-24T23:56:38.792Z,31.62
2018-12-24T23:59:19.333Z,30.32
